Time;durP1;ratioP1;P1;durP2;ratioP2;P2;SDS_P1;SDS_P2;PMS_P1;PMS_P2;Temp;Humidity;BMP_temperature;BMP_pressure;BME280_temperature;BME280_humidity;BME280_pressure;Samples;Min_cycle;Max_cycle;Signal;HPM_P1;HPM_P2
2022/10/12 00:00:16;;;;;;;15.37;11.83;;;20.20;62.80;;;;;;5049516;28;20276;-47
2022/10/12 00:02:42;;;;;;;14.23;12.37;;;20.10;62.70;;;;;;5042485;28;20189;-49
2022/10/12 00:05:08;;;;;;;14.37;12.97;;;20.00;62.40;;;;;;5044647;28;20236;-52
2022/10/12 00:07:34;;;;;;;18.50;12.63;;;20.00;62.40;;;;;;5048415;28;20228;-48
2022/10/12 00:10:00;;;;;;;13.03;11.83;;;20.00;62.40;;;;;;5046073;28;20486;-52
2022/10/12 00:12:26;;;;;;;14.53;12.50;;;19.90;62.30;;;;;;5046261;28;20468;-49
2022/10/12 00:14:51;;;;;;;13.33;11.03;;;20.00;62.30;;;;;;5046713;28;20263;-50
2022/10/12 00:17:17;;;;;;;11.53;10.53;;;19.90;62.00;;;;;;5046960;28;20664;-48
2022/10/12 00:19:43;;;;;;;14.50;11.20;;;19.90;61.90;;;;;;5048130;28;20236;-48
2022/10/12 00:22:08;;;;;;;14.27;12.87;;;19.80;61.60;;;;;;5044360;28;20561;-47
2022/10/12 00:24:34;;;;;;;15.50;11.13;;;19.80;61.70;;;;;;5042345;28;20195;-48
2022/10/12 00:27:00;;;;;;;14.43;11.50;;;19.80;61.80;;;;;;5046721;28;20224;-49
2022/10/12 00:29:26;;;;;;;16.70;11.87;;;19.80;61.90;;;;;;5045575;28;20617;-49
2022/10/12 00:31:51;;;;;;;12.30;11.00;;;19.70;61.70;;;;;;5036966;28;20474;-51
2022/10/12 00:34:17;;;;;;;16.33;11.80;;;19.70;61.50;;;;;;5039754;28;20702;-51
2022/10/12 00:36:43;;;;;;;12.70;11.50;;;19.70;61.30;;;;;;5038582;28;20305;-48
2022/10/12 00:39:09;;;;;;;12.33;10.93;;;19.70;61.20;;;;;;5042485;28;21683;-48
2022/10/12 00:41:39;;;;;;;12.27;10.50;;;19.70;61.40;;;;;;5042625;28;20541;-48
2022/10/12 00:44:50;;;;;;;11.83;10.57;;;19.70;61.40;;;;;;5044527;28;20439;-47
2022/10/12 00:47:28;;;;;;;12.63;10.60;;;19.60;61.10;;;;;;5043006;28;20536;-47
2022/10/12 00:49:56;;;;;;;12.80;11.50;;;19.60;61.30;;;;;;5044783;28;20477;-48
2022/10/12 00:52:26;;;;;;;13.80;11.70;;;19.50;61.50;;;;;;5041988;28;20477;-51
2022/10/12 00:54:53;;;;;;;11.43;10.43;;;19.40;61.90;;;;;;5048994;28;20431;-48
2022/10/12 00:57:20;;;;;;;12.60;11.33;;;19.30;62.40;;;;;;5044411;28;20522;-52
2022/10/12 00:59:53;;;;;;;14.97;11.57;;;19.30;62.80;;;;;;5043785;28;20478;-47
2022/10/12 01:02:20;;;;;;;12.77;11.27;;;19.20;63.20;;;;;;5041103;28;20467;-48
2022/10/12 01:04:46;;;;;;;15.53;11.80;;;19.20;63.40;;;;;;5040567;28;20466;-48
2022/10/12 01:07:12;;;;;;;13.90;12.40;;;19.10;63.40;;;;;;5046533;28;20525;-47
2022/10/12 01:09:37;;;;;;;14.37;12.77;;;19.00;63.50;;;;;;5049764;28;20197;-48
2022/10/12 01:12:06;;;;;;;17.33;12.37;;;19.00;63.90;;;;;;5046410;28;20450;-48
2022/10/12 01:14:31;;;;;;;13.53;11.80;;;18.90;64.20;;;;;;5053895;28;20200;-49
2022/10/12 01:16:57;;;;;;;16.63;11.90;;;18.90;64.70;;;;;;5043877;28;20443;-51
2022/10/12 01:19:51;;;;;;;16.87;12.77;;;18.90;65.10;;;;;;5047010;28;20266;-47
2022/10/12 01:22:19;;;;;;;15.60;12.73;;;18.90;66.40;;;;;;5041971;28;20195;-48
2022/10/12 01:25:22;;;;;;;15.40;13.30;;;18.90;65.80;;;;;;5048976;28;20443;-47
2022/10/12 01:27:54;;;;;;;17.87;12.43;;;18.90;65.90;;;;;;5043717;28;20479;-48
2022/10/12 01:30:23;;;;;;;16.93;12.50;;;18.80;65.90;;;;;;5044344;28;20890;-47
2022/10/12 01:33:21;;;;;;;16.90;12.93;;;18.80;66.00;;;;;;5048004;28;20551;-48
2022/10/12 01:35:53;;;;;;;16.07;11.87;;;18.70;65.80;;;;;;4989673;28;20454;-48
2022/10/12 01:38:40;;;;;;;13.83;12.43;;;18.70;65.70;;;;;;5045863;28;20537;-53
2022/10/12 01:41:12;;;;;;;18.80;12.87;;;18.70;65.80;;;;;;5037802;28;20537;-51
2022/10/12 01:43:40;;;;;;;14.13;12.70;;;18.50;66.50;;;;;;5045673;28;20470;-47
2022/10/12 01:46:11;;;;;;;14.47;12.03;;;18.50;66.90;;;;;;5045470;28;20435;-50
2022/10/12 01:48:38;;;;;;;12.93;11.73;;;18.60;67.00;;;;;;5046622;28;20549;-47
2022/10/12 01:51:04;;;;;;;16.27;13.30;;;18.60;66.60;;;;;;5045461;28;20473;-51
2022/10/12 01:53:41;;;;;;;19.83;13.07;;;18.60;66.20;;;;;;5051042;28;20462;-51
2022/10/12 01:56:13;;;;;;;14.27;11.63;;;18.60;66.10;;;;;;5046601;28;20196;-47
2022/10/12 01:58:46;;;;;;;14.57;11.73;;;18.60;65.80;;;;;;5047479;28;20530;-50
2022/10/12 02:01:25;;;;;;;15.17;11.27;;;18.60;65.40;;;;;;5048202;28;20808;-47
2022/10/12 02:04:01;;;;;;;16.17;10.70;;;18.60;64.80;;;;;;5047795;28;20435;-47
2022/10/12 02:06:45;;;;;;;14.57;12.10;;;18.50;64.40;;;;;;5046389;28;20446;-49
2022/10/12 02:09:34;;;;;;;16.60;11.50;;;18.50;64.20;;;;;;5051350;28;20470;-48
2022/10/12 02:12:06;;;;;;;22.07;13.97;;;18.40;64.20;;;;;;5048098;28;20447;-48
2022/10/12 02:14:39;;;;;;;16.67;13.93;;;18.40;64.60;;;;;;5048870;28;20447;-49
2022/10/12 02:17:08;;;;;;;14.67;12.60;;;18.40;65.00;;;;;;5038374;28;20488;-47
2022/10/12 02:19:41;;;;;;;15.10;12.80;;;18.30;64.90;;;;;;5046575;28;20474;-48
2022/10/12 02:22:08;;;;;;;14.57;13.07;;;18.30;65.20;;;;;;5048167;28;20466;-50
2022/10/12 02:24:37;;;;;;;14.90;13.40;;;18.20;65.40;;;;;;5046766;28;20443;-48
2022/10/12 02:27:04;;;;;;;14.60;11.90;;;18.20;65.60;;;;;;5037870;28;20479;-48
2022/10/12 02:29:38;;;;;;;12.13;10.93;;;18.20;65.60;;;;;;5046696;28;20439;-50
2022/10/12 02:32:37;;;;;;;14.63;13.23;;;18.20;66.30;;;;;;5041454;28;20451;-51
2022/10/12 02:35:08;;;;;;;13.93;12.53;;;18.20;65.50;;;;;;5036224;28;20942;-47
2022/10/12 02:37:42;;;;;;;14.30;12.60;;;18.20;65.60;;;;;;5046076;28;20455;-47
2022/10/12 02:40:16;;;;;;;13.57;12.13;;;18.20;65.90;;;;;;5045415;28;20451;-49
2022/10/12 02:42:49;;;;;;;15.27;12.67;;;18.20;65.80;;;;;;5039225;28;21021;-47
2022/10/12 02:45:17;;;;;;;12.83;11.53;;;18.20;65.50;;;;;;5048352;28;20443;-47
2022/10/12 02:47:46;;;;;;;12.17;11.17;;;18.10;65.20;;;;;;5040569;28;20494;-48
2022/10/12 02:50:14;;;;;;;11.33;10.23;;;18.10;65.00;;;;;;5045582;28;20985;-49
2022/10/12 02:52:40;;;;;;;11.13;10.13;;;18.10;64.80;;;;;;5042198;28;20478;-53
2022/10/12 02:55:06;;;;;;;12.00;10.43;;;18.00;64.70;;;;;;5047081;28;20479;-48
2022/10/12 02:57:31;;;;;;;11.40;10.27;;;18.00;64.70;;;;;;5045316;28;20193;-47
2022/10/12 02:59:57;;;;;;;11.73;10.60;;;18.00;65.00;;;;;;5040409;28;20439;-48
2022/10/12 03:02:22;;;;;;;11.00;10.00;;;17.90;64.90;;;;;;5047187;28;20660;-48
2022/10/12 03:04:48;;;;;;;11.10;10.00;;;18.00;65.20;;;;;;5047511;28;20193;-48
2022/10/12 03:07:13;;;;;;;10.80;9.27;;;17.90;65.20;;;;;;5040362;28;20217;-48
2022/10/12 03:09:39;;;;;;;10.23;9.33;;;18.00;65.40;;;;;;5036988;28;20676;-48
2022/10/12 03:12:05;;;;;;;10.63;9.77;;;18.00;65.50;;;;;;5034843;28;20677;-48
2022/10/12 03:14:32;;;;;;;11.10;10.20;;;17.90;65.60;;;;;;5047435;28;20192;-48
2022/10/12 03:16:58;;;;;;;11.20;10.30;;;18.00;65.90;;;;;;5044177;28;20590;-47
2022/10/12 03:19:23;;;;;;;11.20;9.90;;;18.00;66.00;;;;;;5051513;28;20474;-48
2022/10/12 03:21:49;;;;;;;12.00;10.90;;;18.00;66.80;;;;;;5040786;28;20272;-47
2022/10/12 03:24:14;;;;;;;10.33;9.43;;;18.00;67.00;;;;;;5043013;28;20199;-50
2022/10/12 03:26:40;;;;;;;10.93;9.93;;;17.90;66.10;;;;;;5040588;28;20191;-48
2022/10/12 03:29:08;;;;;;;10.43;9.40;;;17.90;65.80;;;;;;5049973;28;20235;-49
2022/10/12 03:31:33;;;;;;;9.70;8.80;;;17.80;66.20;;;;;;5045110;28;20276;-49
2022/10/12 03:33:59;;;;;;;10.50;9.50;;;17.80;66.20;;;;;;5049008;28;20542;-47
2022/10/12 03:36:25;;;;;;;10.30;9.00;;;17.80;66.20;;;;;;5048170;28;20608;-49
2022/10/12 03:38:50;;;;;;;11.10;10.00;;;17.80;65.90;;;;;;5046361;28;20243;-48
2022/10/12 03:41:16;;;;;;;11.63;10.30;;;17.80;65.70;;;;;;5048399;28;20240;-47
2022/10/12 03:43:41;;;;;;;11.50;9.83;;;17.80;66.00;;;;;;5041134;28;20251;-48
2022/10/12 03:46:07;;;;;;;14.40;11.40;;;17.80;66.00;;;;;;5048739;28;20189;-47
2022/10/12 03:48:32;;;;;;;15.53;12.37;;;17.80;66.10;;;;;;5046102;28;20228;-50
2022/10/12 03:50:58;;;;;;;13.97;12.57;;;17.80;66.20;;;;;;5050973;28;20205;-48
2022/10/12 03:53:24;;;;;;;12.77;11.47;;;17.80;66.20;;;;;;5047653;28;20192;-47
2022/10/12 03:55:49;;;;;;;14.13;11.20;;;17.80;66.50;;;;;;5047450;28;20188;-47
2022/10/12 03:58:15;;;;;;;11.77;10.57;;;17.70;66.40;;;;;;5049637;28;20386;-47
2022/10/12 04:00:40;;;;;;;16.03;12.40;;;17.70;66.30;;;;;;5048633;28;20197;-47
2022/10/12 04:03:06;;;;;;;12.33;11.10;;;17.70;66.30;;;;;;5044991;28;20203;-51
2022/10/12 04:05:32;;;;;;;16.87;11.83;;;17.80;66.40;;;;;;5049782;28;20195;-47
2022/10/12 04:07:58;;;;;;;14.73;10.93;;;17.80;66.40;;;;;;5045965;28;20240;-47
2022/10/12 04:10:24;;;;;;;19.93;11.67;;;17.70;66.50;;;;;;5039148;28;20439;-49
2022/10/12 04:12:50;;;;;;;15.60;13.20;;;17.70;66.70;;;;;;5045825;28;20842;-50
2022/10/12 04:15:17;;;;;;;18.13;13.40;;;17.70;67.30;;;;;;5044380;28;21038;-47
2022/10/12 04:17:43;;;;;;;17.47;12.57;;;17.60;66.70;;;;;;5042769;28;20542;-49
2022/10/12 04:20:10;;;;;;;12.87;11.50;;;17.60;67.30;;;;;;5046549;28;20475;-48
2022/10/12 04:22:35;;;;;;;17.67;12.30;;;17.60;67.80;;;;;;5049441;28;20447;-48
2022/10/12 04:25:01;;;;;;;22.80;12.13;;;17.60;67.60;;;;;;5047602;28;21447;-47
2022/10/12 04:27:26;;;;;;;15.10;12.43;;;17.60;67.40;;;;;;5047125;28;20228;-47
2022/10/12 04:29:52;;;;;;;20.70;11.70;;;17.60;67.10;;;;;;5045942;28;20679;-48
2022/10/12 04:32:17;;;;;;;19.87;13.87;;;17.60;67.00;;;;;;5047884;28;20189;-50
2022/10/12 04:34:43;;;;;;;16.93;13.43;;;17.60;67.30;;;;;;5047162;28;20197;-47
2022/10/12 04:37:09;;;;;;;19.20;12.20;;;17.60;67.40;;;;;;5046989;28;20678;-48
2022/10/12 04:39:34;;;;;;;14.93;11.70;;;17.60;67.60;;;;;;5040769;28;20196;-47
2022/10/12 04:42:01;;;;;;;15.47;11.97;;;17.60;68.50;;;;;;5038430;28;20664;-47
2022/10/12 04:44:26;;;;;;;16.10;12.43;;;17.60;67.80;;;;;;5043587;28;20192;-52
2022/10/12 04:46:52;;;;;;;13.47;11.57;;;17.60;67.80;;;;;;5041483;28;20938;-48
2022/10/12 04:49:17;;;;;;;14.00;11.00;;;17.70;67.80;;;;;;5047285;28;20609;-49
2022/10/12 04:51:43;;;;;;;16.93;11.63;;;17.70;67.70;;;;;;5042788;28;20246;-49
2022/10/12 04:54:09;;;;;;;16.90;10.87;;;17.70;67.70;;;;;;5046574;28;20196;-48
2022/10/12 04:56:35;;;;;;;23.30;12.47;;;17.60;67.70;;;;;;5045646;28;20655;-48
2022/10/12 04:59:00;;;;;;;13.77;11.37;;;17.60;68.10;;;;;;5043672;28;20455;-47
2022/10/12 05:01:26;;;;;;;14.47;12.10;;;17.50;68.30;;;;;;5047529;28;20605;-47
2022/10/12 05:03:51;;;;;;;13.57;12.20;;;17.50;68.50;;;;;;5047110;28;20216;-49
2022/10/12 05:06:17;;;;;;;15.07;13.17;;;17.60;68.50;;;;;;5049334;28;20200;-47
2022/10/12 05:08:43;;;;;;;17.63;13.40;;;17.60;68.30;;;;;;5046011;28;20312;-48
2022/10/12 05:11:08;;;;;;;20.70;15.37;;;17.70;68.30;;;;;;5048524;28;20242;-48
2022/10/12 05:13:34;;;;;;;20.47;13.40;;;17.70;68.20;;;;;;5045232;28;20212;-47
2022/10/12 05:15:59;;;;;;;17.93;14.77;;;17.70;68.40;;;;;;5044490;28;20235;-47
2022/10/12 05:18:25;;;;;;;13.97;12.57;;;17.80;68.80;;;;;;5045428;28;20192;-48
2022/10/12 05:20:50;;;;;;;15.67;12.90;;;17.90;68.50;;;;;;5038382;28;20224;-48
2022/10/12 05:23:16;;;;;;;14.87;12.93;;;18.00;68.90;;;;;;5045440;28;20379;-48
2022/10/12 05:25:42;;;;;;;19.77;12.70;;;18.10;68.70;;;;;;5040426;28;21752;-47
2022/10/12 05:28:07;;;;;;;18.03;12.40;;;18.20;67.60;;;;;;5040568;28;20266;-48
2022/10/12 05:30:33;;;;;;;16.80;12.37;;;18.20;67.40;;;;;;5046016;28;20247;-49
2022/10/12 05:32:59;;;;;;;16.80;12.67;;;18.20;67.40;;;;;;5036821;28;20204;-48
2022/10/12 05:35:24;;;;;;;15.50;11.67;;;18.20;67.10;;;;;;5039264;28;20246;-48
2022/10/12 05:37:50;;;;;;;12.67;11.10;;;18.20;66.90;;;;;;5041864;28;20239;-48
2022/10/12 05:40:15;;;;;;;14.17;10.87;;;18.10;67.30;;;;;;5044348;28;20189;-52
2022/10/12 05:42:43;;;;;;;15.27;11.73;;;18.10;66.80;;;;;;5044807;28;20200;-48
2022/10/12 05:45:09;;;;;;;13.10;11.77;;;18.10;66.60;;;;;;5049925;28;20200;-47
2022/10/12 05:47:35;;;;;;;15.03;10.03;;;18.20;66.50;;;;;;5045553;28;21051;-49
2022/10/12 05:50:00;;;;;;;11.90;10.70;;;18.30;66.40;;;;;;5049590;28;20449;-49
2022/10/12 05:52:26;;;;;;;11.73;10.47;;;18.30;66.60;;;;;;5046522;28;20227;-48
2022/10/12 05:54:51;;;;;;;14.80;11.30;;;18.40;66.30;;;;;;5047197;28;20192;-49
2022/10/12 05:57:18;;;;;;;15.50;11.00;;;18.40;66.00;;;;;;5047197;28;20674;-47
2022/10/12 05:59:43;;;;;;;13.70;12.30;;;18.50;65.80;;;;;;5049513;28;20569;-48
2022/10/12 06:02:16;;;;;;;16.20;11.90;;;18.40;65.40;;;;;;5046533;28;20439;-47
2022/10/12 06:04:42;;;;;;;14.70;10.30;;;18.40;65.50;;;;;;5044630;28;20207;-50
2022/10/12 06:07:07;;;;;;;13.20;11.70;;;18.40;65.50;;;;;;5044911;28;20838;-50
2022/10/12 06:09:37;;;;;;;13.47;10.73;;;18.50;65.50;;;;;;5048901;28;20266;-47
2022/10/12 06:12:03;;;;;;;11.67;10.47;;;18.60;65.00;;;;;;5046527;28;20275;-47
2022/10/12 06:14:29;;;;;;;14.27;11.30;;;18.60;64.90;;;;;;5049820;28;20555;-47
2022/10/12 06:16:54;;;;;;;12.30;10.47;;;18.60;64.70;;;;;;5042484;28;20447;-48
2022/10/12 06:19:20;;;;;;;14.13;11.57;;;18.60;64.40;;;;;;5041731;28;20248;-50
2022/10/12 06:21:45;;;;;;;12.57;11.37;;;18.60;64.60;;;;;;5044754;28;20196;-48
2022/10/12 06:24:11;;;;;;;13.80;10.60;;;18.70;64.80;;;;;;5050122;28;20636;-47
2022/10/12 06:26:37;;;;;;;17.23;11.80;;;18.70;64.50;;;;;;5050025;28;20657;-48
2022/10/12 06:29:02;;;;;;;12.27;11.07;;;18.50;63.90;;;;;;5050951;28;20731;-47
2022/10/12 06:31:28;;;;;;;13.10;11.30;;;18.50;64.90;;;;;;5049136;28;20197;-47
2022/10/12 06:33:53;;;;;;;15.70;10.60;;;18.50;64.90;;;;;;5047909;28;20272;-49
2022/10/12 06:36:19;;;;;;;12.63;11.27;;;18.60;64.90;;;;;;5048802;28;20262;-48
2022/10/12 06:38:45;;;;;;;14.67;11.63;;;18.60;64.50;;;;;;5049802;28;20200;-47
2022/10/12 06:41:11;;;;;;;13.03;10.37;;;18.70;64.60;;;;;;5050037;28;20225;-48
2022/10/12 06:43:36;;;;;;;12.87;10.93;;;18.70;64.80;;;;;;5048410;28;20279;-50
2022/10/12 06:46:02;;;;;;;16.50;13.17;;;18.50;64.70;;;;;;5048810;28;20196;-49
2022/10/12 06:48:29;;;;;;;12.40;11.20;;;18.30;64.80;;;;;;5052010;28;20258;-48
2022/10/12 06:50:54;;;;;;;22.00;12.00;;;18.10;66.50;;;;;;5053172;28;20496;-47
2022/10/12 06:53:20;;;;;;;12.33;10.20;;;18.20;67.10;;;;;;5055042;28;20465;-47
2022/10/12 06:55:46;;;;;;;13.20;11.00;;;18.30;66.80;;;;;;5050724;28;20189;-47
2022/10/12 06:58:12;;;;;;;14.80;11.10;;;18.40;66.70;;;;;;5053827;28;20423;-48
2022/10/12 07:00:37;;;;;;;11.07;9.60;;;18.50;66.30;;;;;;5053122;28;20233;-49
2022/10/12 07:03:03;;;;;;;12.30;11.10;;;18.60;65.80;;;;;;5051125;28;20212;-48
2022/10/12 07:05:29;;;;;;;16.83;11.27;;;18.60;65.40;;;;;;5051096;28;20188;-48
2022/10/12 07:07:55;;;;;;;13.97;11.53;;;18.70;65.50;;;;;;5049847;28;20231;-48
2022/10/12 07:10:21;;;;;;;12.57;10.90;;;18.70;65.40;;;;;;5052947;28;20559;-49
2022/10/12 07:12:47;;;;;;;14.77;10.40;;;18.70;64.90;;;;;;5053755;28;20281;-47
2022/10/12 07:15:13;;;;;;;18.00;11.90;;;18.70;65.10;;;;;;5055216;28;20188;-47
2022/10/12 07:17:38;;;;;;;12.13;10.60;;;18.80;65.10;;;;;;5051123;28;20454;-47
2022/10/12 07:20:05;;;;;;;15.67;10.80;;;18.90;65.00;;;;;;5049248;28;20288;-48
2022/10/12 07:22:30;;;;;;;14.97;11.90;;;19.00;64.70;;;;;;5053411;28;20249;-48
2022/10/12 07:24:56;;;;;;;12.43;11.33;;;19.00;64.60;;;;;;5052151;28;21064;-47
2022/10/12 07:27:22;;;;;;;14.47;13.07;;;19.00;64.50;;;;;;5053220;28;20220;-51
2022/10/12 07:29:48;;;;;;;14.63;12.60;;;19.00;64.60;;;;;;5051743;28;20768;-46
2022/10/12 07:32:13;;;;;;;14.20;12.50;;;19.00;64.70;;;;;;5050766;28;20584;-47
2022/10/12 07:34:40;;;;;;;16.07;12.47;;;19.00;64.70;;;;;;5051933;28;20192;-47
2022/10/12 07:37:05;;;;;;;13.93;12.53;;;19.10;64.40;;;;;;5052449;28;20223;-48
2022/10/12 07:39:31;;;;;;;14.27;12.77;;;19.10;64.20;;;;;;5052515;28;20436;-49
2022/10/12 07:41:57;;;;;;;14.07;11.87;;;19.10;64.60;;;;;;5051818;28;20608;-47
2022/10/12 07:44:23;;;;;;;17.73;11.43;;;19.10;64.60;;;;;;5051827;28;20272;-48
2022/10/12 07:46:49;;;;;;;16.13;13.23;;;19.00;65.10;;;;;;5050413;28;20220;-48
2022/10/12 07:49:15;;;;;;;13.30;10.70;;;19.10;64.90;;;;;;5052356;28;20483;-49
2022/10/12 07:51:41;;;;;;;15.63;12.43;;;19.10;65.30;;;;;;5050612;28;20199;-48
2022/10/12 07:54:07;;;;;;;13.83;12.40;;;19.10;65.30;;;;;;5051739;28;20447;-47
2022/10/12 07:56:33;;;;;;;12.13;10.73;;;19.20;65.30;;;;;;5052830;28;20447;-47
2022/10/12 07:58:59;;;;;;;14.57;13.00;;;19.30;65.20;;;;;;5042899;28;20984;-49
2022/10/12 08:01:31;;;;;;;15.10;13.53;;;19.50;65.20;;;;;;5047144;28;20201;-48
2022/10/12 08:03:58;;;;;;;16.17;14.57;;;19.60;65.00;;;;;;5043910;28;20443;-50
2022/10/12 08:06:25;;;;;;;15.00;13.10;;;19.70;64.90;;;;;;5047402;28;20456;-47
2022/10/12 08:08:51;;;;;;;18.53;14.10;;;19.80;64.80;;;;;;5047452;28;20482;-47
2022/10/12 08:11:18;;;;;;;15.67;13.73;;;19.90;64.60;;;;;;5048220;28;20432;-48
2022/10/12 08:13:44;;;;;;;16.67;14.57;;;19.90;64.20;;;;;;5043342;28;20193;-47
2022/10/12 08:16:12;;;;;;;15.27;11.43;;;19.90;63.70;;;;;;5046669;28;20882;-48
2022/10/12 08:18:38;;;;;;;11.80;10.33;;;19.90;63.60;;;;;;5048577;28;20938;-51
2022/10/12 08:21:09;;;;;;;14.63;13.20;;;20.10;63.30;;;;;;5045655;28;20435;-48
2022/10/12 08:23:35;;;;;;;13.20;11.87;;;20.30;62.30;;;;;;5046186;28;20467;-48
2022/10/12 08:26:02;;;;;;;14.23;12.70;;;20.50;61.70;;;;;;5048679;28;20450;-49
2022/10/12 08:28:27;;;;;;;26.40;15.63;;;20.70;61.20;;;;;;5040683;28;20495;-47
2022/10/12 08:30:53;;;;;;;13.13;11.73;;;20.80;60.70;;;;;;5034567;28;20450;-47
2022/10/12 08:33:19;;;;;;;14.50;12.97;;;20.90;60.50;;;;;;5047568;28;20197;-47
2022/10/12 08:35:46;;;;;;;13.20;11.90;;;20.90;60.30;;;;;;5044545;28;20628;-50
2022/10/12 08:38:12;;;;;;;17.17;12.77;;;21.00;60.10;;;;;;5046217;28;20202;-48
2022/10/12 08:40:51;;;;;;;14.60;12.50;;;21.10;59.70;;;;;;5046436;28;20496;-47
2022/10/12 08:43:28;;;;;;;18.17;14.13;;;21.10;59.50;;;;;;5040728;28;20474;-49
2022/10/12 08:45:57;;;;;;;16.33;14.17;;;21.10;59.40;;;;;;5043713;28;20446;-49
2022/10/12 08:48:46;;;;;;;17.07;13.70;;;20.90;59.50;;;;;;5040912;28;20490;-48
2022/10/12 08:51:17;;;;;;;16.57;14.00;;;21.10;59.50;;;;;;5046665;28;20439;-48
2022/10/12 08:53:53;;;;;;;19.07;14.03;;;21.20;59.30;;;;;;5042473;28;20454;-48
2022/10/12 08:56:20;;;;;;;20.40;13.20;;;21.30;59.10;;;;;;5043299;28;21201;-46
2022/10/12 08:58:48;;;;;;;19.63;14.17;;;21.50;58.70;;;;;;5045660;28;20798;-46
2022/10/12 09:01:22;;;;;;;15.43;13.67;;;21.60;58.60;;;;;;5039027;28;21019;-46
2022/10/12 09:04:12;;;;;;;17.80;12.77;;;21.70;58.60;;;;;;5049021;28;20457;-45
2022/10/12 09:07:05;;;;;;;15.60;12.37;;;21.80;58.30;;;;;;5046916;28;21738;-48
2022/10/12 09:09:44;;;;;;;20.57;14.20;;;21.90;57.80;;;;;;5048435;28;20477;-46
2022/10/12 09:12:23;;;;;;;15.30;13.57;;;21.80;57.70;;;;;;5042622;28;20439;-45
2022/10/12 09:14:51;;;;;;;19.00;13.10;;;21.90;57.60;;;;;;5046080;28;20505;-49
2022/10/12 09:17:17;;;;;;;17.43;12.40;;;22.00;57.80;;;;;;5047653;28;20431;-50
2022/10/12 09:19:42;;;;;;;17.43;15.30;;;22.00;57.50;;;;;;5045443;28;20486;-47
2022/10/12 09:22:18;;;;;;;17.13;13.63;;;21.90;57.60;;;;;;5037122;28;20954;-52
2022/10/12 09:24:46;;;;;;;15.80;13.50;;;22.00;57.60;;;;;;5043789;28;20256;-47
2022/10/12 09:27:15;;;;;;;17.30;12.70;;;22.10;57.60;;;;;;5042093;28;20447;-47
2022/10/12 09:29:45;;;;;;;25.40;13.20;;;22.20;57.20;;;;;;5041843;28;20440;-47
2022/10/12 09:32:52;;;;;;;18.30;13.50;;;22.20;57.10;;;;;;5043540;28;20541;-47
2022/10/12 09:35:18;;;;;;;19.13;13.47;;;22.30;56.80;;;;;;5040121;28;20457;-51
2022/10/12 09:37:49;;;;;;;13.23;11.80;;;22.30;56.80;;;;;;5045388;28;20543;-48
2022/10/12 09:40:33;;;;;;;14.77;13.27;;;22.30;56.90;;;;;;5044581;28;20200;-50
2022/10/12 09:43:01;;;;;;;12.50;11.20;;;22.40;56.80;;;;;;5047743;28;20450;-47
2022/10/12 09:45:30;;;;;;;14.20;11.70;;;22.40;56.50;;;;;;5045941;28;20520;-49
2022/10/12 09:48:09;;;;;;;13.80;12.40;;;22.30;56.00;;;;;;5039824;28;21005;-47
2022/10/12 09:50:55;;;;;;;13.40;11.07;;;22.40;56.40;;;;;;5045937;28;20461;-50
2022/10/12 09:53:29;;;;;;;12.80;11.27;;;22.40;56.40;;;;;;5044649;28;20514;-48
2022/10/12 09:56:04;;;;;;;12.23;10.53;;;22.40;56.30;;;;;;5046843;28;20472;-51
2022/10/12 09:58:38;;;;;;;16.10;12.90;;;22.50;56.00;;;;;;5046545;28;20443;-47
2022/10/12 10:01:12;;;;;;;12.10;9.70;;;22.30;55.90;;;;;;5047158;28;20884;-48
2022/10/12 10:03:37;;;;;;;13.03;9.90;;;22.30;56.30;;;;;;5048062;28;20442;-48
2022/10/12 10:06:04;;;;;;;13.30;11.03;;;22.40;56.10;;;;;;5047870;28;20474;-49
2022/10/12 10:08:39;;;;;;;12.40;11.17;;;22.50;55.90;;;;;;5042899;28;20301;-48
2022/10/12 10:11:13;;;;;;;15.10;10.77;;;22.50;55.60;;;;;;5047841;28;20431;-47
2022/10/12 10:13:46;;;;;;;12.10;10.83;;;22.50;55.50;;;;;;5052930;28;20439;-48
2022/10/12 10:16:12;;;;;;;12.53;9.63;;;22.50;55.40;;;;;;5046235;28;20854;-50
2022/10/12 10:18:54;;;;;;;12.93;11.23;;;22.50;55.00;;;;;;5047687;28;20435;-47
2022/10/12 10:21:38;;;;;;;11.80;10.60;;;22.40;54.80;;;;;;5046208;28;20189;-46
2022/10/12 10:24:31;;;;;;;11.40;10.20;;;22.40;54.70;;;;;;5041788;28;20496;-47
2022/10/12 10:26:59;;;;;;;15.63;11.20;;;22.30;54.70;;;;;;5050038;28;20965;-49
2022/10/12 10:29:33;;;;;;;14.90;11.73;;;22.10;55.10;;;;;;5051379;28;20497;-48
2022/10/12 10:32:25;;;;;;;16.10;11.50;;;22.10;55.30;;;;;;5049553;28;20455;-47
2022/10/12 10:35:12;;;;;;;12.43;10.63;;;22.10;55.60;;;;;;5050271;28;20443;-47
2022/10/12 10:37:58;;;;;;;14.73;11.60;;;22.10;55.50;;;;;;5046752;28;20957;-48
2022/10/12 10:40:30;;;;;;;11.40;10.30;;;22.10;55.30;;;;;;5042761;28;20455;-48
2022/10/12 10:42:58;;;;;;;13.23;11.40;;;22.10;55.50;;;;;;5046631;28;20434;-48
2022/10/12 10:45:30;;;;;;;14.83;10.23;;;22.20;55.30;;;;;;5044288;28;20471;-47
2022/10/12 10:48:05;;;;;;;11.40;10.23;;;22.20;55.10;;;;;;5050888;28;20497;-47
2022/10/12 10:50:36;;;;;;;13.70;10.67;;;22.20;55.10;;;;;;5050806;28;20438;-47
2022/10/12 10:53:07;;;;;;;12.03;10.83;;;22.10;55.00;;;;;;5051246;28;20964;-47
2022/10/12 10:55:51;;;;;;;13.30;11.03;;;22.10;55.10;;;;;;5050705;28;20976;-49
2022/10/12 10:58:45;;;;;;;12.80;11.27;;;22.10;55.20;;;;;;5050179;28;20438;-47
2022/10/12 11:01:36;;;;;;;12.53;11.23;;;22.00;55.10;;;;;;5050475;28;20467;-48
2022/10/12 11:04:10;;;;;;;14.67;11.40;;;21.90;55.20;;;;;;5053676;28;20863;-47
2022/10/12 11:06:41;;;;;;;11.33;10.23;;;21.80;55.80;;;;;;5051160;28;20946;-47
2022/10/12 11:09:17;;;;;;;14.10;11.00;;;21.90;55.70;;;;;;5051601;28;20493;-47
2022/10/12 11:11:46;;;;;;;12.53;11.23;;;21.90;55.20;;;;;;5051148;28;20920;-46
2022/10/12 11:14:19;;;;;;;11.17;9.90;;;21.80;55.50;;;;;;5057144;28;20418;-48
2022/10/12 11:16:54;;;;;;;14.07;10.17;;;21.90;56.10;;;;;;5047295;28;20450;-46
2022/10/12 11:19:45;;;;;;;11.90;10.40;;;21.40;56.70;;;;;;5050438;28;20505;-47
2022/10/12 11:22:15;;;;;;;9.83;8.83;;;21.40;57.10;;;;;;5050094;28;20455;-46
2022/10/12 11:24:49;;;;;;;11.57;10.07;;;21.40;56.90;;;;;;5052025;28;20458;-48
2022/10/12 11:27:44;;;;;;;13.23;10.10;;;21.30;57.40;;;;;;5051859;28;20489;-46
2022/10/12 11:30:14;;;;;;;11.33;10.13;;;21.50;57.40;;;;;;5047005;28;20489;-47
2022/10/12 11:33:10;;;;;;;13.47;10.23;;;21.60;56.80;;;;;;5048077;28;20474;-46
2022/10/12 11:35:39;;;;;;;16.30;11.10;;;21.70;56.50;;;;;;5001433;28;20455;-46
2022/10/12 11:38:15;;;;;;;12.33;9.83;;;21.50;56.60;;;;;;5048543;28;20985;-48
2022/10/12 11:40:52;;;;;;;10.80;9.80;;;21.60;56.70;;;;;;5048209;28;20480;-51
2022/10/12 11:43:24;;;;;;;14.33;10.37;;;21.70;56.90;;;;;;5042309;28;20473;-50
2022/10/12 11:45:56;;;;;;;16.23;10.87;;;21.90;55.80;;;;;;5047626;28;20439;-47
2022/10/12 11:48:32;;;;;;;10.83;9.73;;;22.10;55.60;;;;;;5045507;28;20486;-46
2022/10/12 11:50:58;;;;;;;13.83;10.37;;;22.10;55.40;;;;;;5047185;28;20456;-50
2022/10/12 11:53:54;;;;;;;13.53;10.00;;;22.30;54.80;;;;;;5048090;28;20496;-46
2022/10/12 11:56:51;;;;;;;14.83;10.00;;;22.40;54.50;;;;;;5046008;28;21378;-46
2022/10/12 11:59:27;;;;;;;14.20;10.17;;;22.20;55.10;;;;;;5015917;28;20466;-47
2022/10/12 12:02:16;;;;;;;10.77;9.67;;;22.30;55.00;;;;;;5045575;28;20481;-47
2022/10/12 12:04:44;;;;;;;14.10;10.40;;;22.40;54.60;;;;;;5036627;28;20537;-52
2022/10/12 12:07:22;;;;;;;14.03;10.97;;;22.50;54.30;;;;;;5050037;28;20447;-46
2022/10/12 12:09:48;;;;;;;14.00;9.30;;;22.50;53.90;;;;;;5048763;28;20500;-49
2022/10/12 12:12:20;;;;;;;13.27;11.20;;;22.60;53.90;;;;;;5048009;28;20467;-46
2022/10/12 12:14:51;;;;;;;12.20;10.97;;;22.50;53.70;;;;;;5051499;28;20447;-47
2022/10/12 12:17:20;;;;;;;12.83;9.73;;;22.40;53.80;;;;;;5044432;28;20509;-47
2022/10/12 12:19:53;;;;;;;14.67;11.13;;;22.20;54.00;;;;;;5046408;28;20490;-46
2022/10/12 12:22:32;;;;;;;13.97;10.60;;;22.20;54.20;;;;;;5039886;28;20454;-46
2022/10/12 12:25:09;;;;;;;13.93;9.10;;;22.20;54.40;;;;;;5050699;28;20439;-47
2022/10/12 12:28:18;;;;;;;15.73;9.07;;;22.10;54.60;;;;;;5046049;28;20502;-46
2022/10/12 12:31:00;;;;;;;19.07;9.70;;;22.00;55.00;;;;;;5038202;28;20451;-48
2022/10/12 12:33:34;;;;;;;12.60;9.53;;;21.90;55.60;;;;;;5043231;28;20800;-46
2022/10/12 12:36:07;;;;;;;10.83;9.27;;;21.80;55.60;;;;;;5046465;28;20434;-46
2022/10/12 12:38:53;;;;;;;11.83;9.33;;;21.80;55.30;;;;;;5041891;28;20428;-47
2022/10/12 12:41:21;;;;;;;17.93;9.33;;;21.90;55.10;;;;;;5046953;28;20535;-46
2022/10/12 12:43:51;;;;;;;16.17;9.50;;;21.90;55.60;;;;;;5036496;28;20439;-48